sensor_id;sensor_type;location;lat;lon;timestamp;pressure;altitude;pressure_sealevel;temperature;humidity
81812;BME280;71243;51.848;5.768;2023-08-31T00:01:26;100875.00;;;13.41;77.03
81812;BME280;71243;51.848;5.768;2023-08-31T00:03:52;100881.13;;;13.42;77.10
81812;BME280;71243;51.848;5.768;2023-08-31T00:06:17;100886.41;;;13.34;77.38
81812;BME280;71243;51.848;5.768;2023-08-31T00:08:42;100878.66;;;13.40;77.09
81812;BME280;71243;51.848;5.768;2023-08-31T00:11:07;100877.81;;;13.40;77.02
81812;BME280;71243;51.848;5.768;2023-08-31T00:13:32;100875.50;;;13.37;77.54
81812;BME280;71243;51.848;5.768;2023-08-31T00:15:58;100877.66;;;13.33;77.57
81812;BME280;71243;51.848;5.768;2023-08-31T00:18:23;100875.00;;;13.33;77.20
81812;BME280;71243;51.848;5.768;2023-08-31T00:20:48;100879.47;;;13.33;77.47
81812;BME280;71243;51.848;5.768;2023-08-31T00:23:14;100868.19;;;13.39;77.20
81812;BME280;71243;51.848;5.768;2023-08-31T00:25:39;100876.81;;;13.33;77.41
81812;BME280;71243;51.848;5.768;2023-08-31T00:28:04;100872.31;;;13.25;77.53
81812;BME280;71243;51.848;5.768;2023-08-31T00:30:30;100862.88;;;13.06;78.44
81812;BME280;71243;51.848;5.768;2023-08-31T00:32:56;100864.19;;;13.10;78.44
81812;BME280;71243;51.848;5.768;2023-08-31T00:35:21;100864.66;;;12.98;78.75
81812;BME280;71243;51.848;5.768;2023-08-31T00:37:49;100866.81;;;13.02;78.82
81812;BME280;71243;51.848;5.768;2023-08-31T00:40:15;100867.59;;;12.95;78.97
81812;BME280;71243;51.848;5.768;2023-08-31T00:42:41;100866.09;;;12.84;79.46
81812;BME280;71243;51.848;5.768;2023-08-31T00:45:06;100863.09;;;12.79;79.84
81812;BME280;71243;51.848;5.768;2023-08-31T00:47:32;100868.06;;;12.82;79.81
81812;BME280;71243;51.848;5.768;2023-08-31T00:49:57;100859.88;;;12.60;80.81
81812;BME280;71243;51.848;5.768;2023-08-31T00:52:22;100868.06;;;12.66;80.75
81812;BME280;71243;51.848;5.768;2023-08-31T00:54:51;100863.44;;;12.76;80.65
81812;BME280;71243;51.848;5.768;2023-08-31T00:57:17;100857.63;;;12.81;80.16
81812;BME280;71243;51.848;5.768;2023-08-31T00:59:42;100859.81;;;12.85;79.71
81812;BME280;71243;51.848;5.768;2023-08-31T01:02:24;100865.41;;;12.82;80.14
81812;BME280;71243;51.848;5.768;2023-08-31T01:07:55;100858.84;;;12.94;79.44
81812;BME280;71243;51.848;5.768;2023-08-31T01:13:15;100854.47;;;12.77;80.27
81812;BME280;71243;51.848;5.768;2023-08-31T01:15:46;100858.41;;;12.65;81.32
81812;BME280;71243;51.848;5.768;2023-08-31T01:18:16;100867.38;;;12.64;81.28
81812;BME280;71243;51.848;5.768;2023-08-31T01:20:51;100865.25;;;12.76;80.78
81812;BME280;71243;51.848;5.768;2023-08-31T01:23:21;100872.84;;;12.71;81.15
81812;BME280;71243;51.848;5.768;2023-08-31T01:25:51;100876.00;;;12.74;81.22
81812;BME280;71243;51.848;5.768;2023-08-31T01:28:16;100878.16;;;12.79;81.09
81812;BME280;71243;51.848;5.768;2023-08-31T01:30:41;100883.66;;;12.36;82.88
81812;BME280;71243;51.848;5.768;2023-08-31T01:33:06;100882.47;;;12.30;83.63
81812;BME280;71243;51.848;5.768;2023-08-31T01:35:37;100880.81;;;12.29;83.80
81812;BME280;71243;51.848;5.768;2023-08-31T01:38:04;100879.63;;;12.24;84.41
81812;BME280;71243;51.848;5.768;2023-08-31T01:43:14;100891.84;;;12.17;85.15
81812;BME280;71243;51.848;5.768;2023-08-31T01:45:40;100885.91;;;12.23;85.09
81812;BME280;71243;51.848;5.768;2023-08-31T01:48:06;100876.78;;;12.17;85.46
81812;BME280;71243;51.848;5.768;2023-08-31T01:50:31;100881.44;;;12.23;85.27
81812;BME280;71243;51.848;5.768;2023-08-31T01:52:56;100874.00;;;12.27;84.99
81812;BME280;71243;51.848;5.768;2023-08-31T01:55:22;100873.22;;;12.34;85.30
81812;BME280;71243;51.848;5.768;2023-08-31T01:57:48;100872.34;;;12.26;85.47
81812;BME280;71243;51.848;5.768;2023-08-31T02:00:14;100865.22;;;12.26;85.54
81812;BME280;71243;51.848;5.768;2023-08-31T02:02:41;100868.25;;;12.31;85.56
81812;BME280;71243;51.848;5.768;2023-08-31T02:05:06;100874.88;;;12.35;85.65
81812;BME280;71243;51.848;5.768;2023-08-31T02:07:31;100878.84;;;12.31;85.97
81812;BME280;71243;51.848;5.768;2023-08-31T02:09:57;100880.84;;;12.37;85.72
81812;BME280;71243;51.848;5.768;2023-08-31T02:12:22;100877.22;;;12.38;85.72
81812;BME280;71243;51.848;5.768;2023-08-31T02:14:47;100877.41;;;12.45;85.60
81812;BME280;71243;51.848;5.768;2023-08-31T02:17:13;100880.25;;;12.51;85.27
81812;BME280;71243;51.848;5.768;2023-08-31T02:19:38;100875.94;;;12.50;85.31
81812;BME280;71243;51.848;5.768;2023-08-31T02:22:03;100879.91;;;12.54;85.66
81812;BME280;71243;51.848;5.768;2023-08-31T02:24:29;100875.97;;;12.58;85.25
81812;BME280;71243;51.848;5.768;2023-08-31T02:26:54;100869.84;;;12.66;85.12
81812;BME280;71243;51.848;5.768;2023-08-31T02:29:19;100875.50;;;12.71;84.90
81812;BME280;71243;51.848;5.768;2023-08-31T02:31:44;100876.63;;;12.60;85.12
81812;BME280;71243;51.848;5.768;2023-08-31T02:34:09;100868.00;;;12.58;85.07
81812;BME280;71243;51.848;5.768;2023-08-31T02:36:35;100873.47;;;12.57;85.08
81812;BME280;71243;51.848;5.768;2023-08-31T02:39:00;100869.69;;;12.59;85.07
81812;BME280;71243;51.848;5.768;2023-08-31T02:41:25;100872.00;;;12.62;84.78
81812;BME280;71243;51.848;5.768;2023-08-31T02:43:51;100875.50;;;12.63;84.83
81812;BME280;71243;51.848;5.768;2023-08-31T02:46:16;100888.41;;;12.66;84.58
81812;BME280;71243;51.848;5.768;2023-08-31T02:48:41;100875.28;;;12.56;84.74
81812;BME280;71243;51.848;5.768;2023-08-31T02:51:06;100883.41;;;12.55;84.94
81812;BME280;71243;51.848;5.768;2023-08-31T02:53:32;100877.31;;;12.62;84.44
81812;BME280;71243;51.848;5.768;2023-08-31T02:55:57;100879.78;;;12.56;84.77
81812;BME280;71243;51.848;5.768;2023-08-31T02:58:22;100889.38;;;12.57;84.69
81812;BME280;71243;51.848;5.768;2023-08-31T03:00:48;100885.59;;;12.59;84.90
81812;BME280;71243;51.848;5.768;2023-08-31T03:03:17;100881.91;;;12.52;85.17
81812;BME280;71243;51.848;5.768;2023-08-31T03:05:43;100884.41;;;12.54;85.46
81812;BME280;71243;51.848;5.768;2023-08-31T03:08:08;100873.13;;;12.52;85.32
81812;BME280;71243;51.848;5.768;2023-08-31T03:10:33;100878.94;;;12.55;85.62
81812;BME280;71243;51.848;5.768;2023-08-31T03:12:59;100881.59;;;12.55;85.67
81812;BME280;71243;51.848;5.768;2023-08-31T03:15:24;100875.78;;;12.60;85.61
81812;BME280;71243;51.848;5.768;2023-08-31T03:17:49;100878.16;;;12.71;85.24
81812;BME280;71243;51.848;5.768;2023-08-31T03:20:14;100873.69;;;12.71;85.12
81812;BME280;71243;51.848;5.768;2023-08-31T03:22:40;100880.19;;;12.77;85.02
81812;BME280;71243;51.848;5.768;2023-08-31T03:25:05;100868.91;;;12.83;84.80
81812;BME280;71243;51.848;5.768;2023-08-31T03:27:30;100875.38;;;12.80;84.98
81812;BME280;71243;51.848;5.768;2023-08-31T03:29:56;100879.34;;;12.84;85.12
81812;BME280;71243;51.848;5.768;2023-08-31T03:32:21;100878.66;;;12.82;85.13
81812;BME280;71243;51.848;5.768;2023-08-31T03:34:46;100872.56;;;12.90;84.68
81812;BME280;71243;51.848;5.768;2023-08-31T03:37:12;100881.88;;;12.94;84.67
81812;BME280;71243;51.848;5.768;2023-08-31T03:39:37;100874.41;;;12.97;84.11
81812;BME280;71243;51.848;5.768;2023-08-31T03:42:02;100871.94;;;12.96;83.95
81812;BME280;71243;51.848;5.768;2023-08-31T03:44:28;100867.09;;;12.91;84.02
81812;BME280;71243;51.848;5.768;2023-08-31T03:46:53;100877.06;;;12.97;83.46
81812;BME280;71243;51.848;5.768;2023-08-31T03:49:18;100877.41;;;12.94;83.68
81812;BME280;71243;51.848;5.768;2023-08-31T03:51:43;100880.06;;;12.94;83.39
81812;BME280;71243;51.848;5.768;2023-08-31T03:54:09;100885.81;;;12.90;83.49
81812;BME280;71243;51.848;5.768;2023-08-31T03:56:34;100881.53;;;12.97;83.07
81812;BME280;71243;51.848;5.768;2023-08-31T03:59:01;100878.59;;;13.00;83.21
81812;BME280;71243;51.848;5.768;2023-08-31T04:01:27;100878.94;;;13.05;82.78
81812;BME280;71243;51.848;5.768;2023-08-31T04:03:52;100872.81;;;13.04;83.25
81812;BME280;71243;51.848;5.768;2023-08-31T04:06:17;100877.56;;;13.01;83.39
81812;BME280;71243;51.848;5.768;2023-08-31T04:08:43;100872.25;;;12.93;83.67
81812;BME280;71243;51.848;5.768;2023-08-31T04:11:08;100876.22;;;12.89;84.36
81812;BME280;71243;51.848;5.768;2023-08-31T04:13:33;100876.56;;;12.94;84.15
81812;BME280;71243;51.848;5.768;2023-08-31T04:15:58;100892.16;;;12.97;83.99
81812;BME280;71243;51.848;5.768;2023-08-31T04:18:23;100892.16;;;12.97;84.25
81812;BME280;71243;51.848;5.768;2023-08-31T04:20:50;100898.78;;;12.93;84.30
81812;BME280;71243;51.848;5.768;2023-08-31T04:23:16;100902.53;;;12.82;85.00
81812;BME280;71243;51.848;5.768;2023-08-31T04:25:42;100912.00;;;12.85;84.78
81812;BME280;71243;51.848;5.768;2023-08-31T04:28:07;100905.19;;;12.82;84.90
81812;BME280;71243;51.848;5.768;2023-08-31T04:30:33;100911.03;;;12.86;84.66
81812;BME280;71243;51.848;5.768;2023-08-31T04:32:58;100911.16;;;12.76;84.98
81812;BME280;71243;51.848;5.768;2023-08-31T04:35:23;100915.78;;;12.74;85.03
81812;BME280;71243;51.848;5.768;2023-08-31T04:37:49;100917.22;;;12.61;85.98
81812;BME280;71243;51.848;5.768;2023-08-31T04:40:14;100914.25;;;12.64;85.40
81812;BME280;71243;51.848;5.768;2023-08-31T04:42:39;100915.25;;;12.63;85.81
81812;BME280;71243;51.848;5.768;2023-08-31T04:45:05;100921.19;;;12.65;85.36
81812;BME280;71243;51.848;5.768;2023-08-31T04:47:30;100916.03;;;12.55;85.67
81812;BME280;71243;51.848;5.768;2023-08-31T04:49:55;100918.69;;;12.55;85.64
81812;BME280;71243;51.848;5.768;2023-08-31T04:52:20;100921.66;;;12.52;85.70
81812;BME280;71243;51.848;5.768;2023-08-31T04:54:46;100923.13;;;12.47;86.00
81812;BME280;71243;51.848;5.768;2023-08-31T04:57:11;100923.66;;;12.58;85.59
81812;BME280;71243;51.848;5.768;2023-08-31T04:59:36;100922.88;;;12.66;85.22
81812;BME280;71243;51.848;5.768;2023-08-31T05:02:01;100941.69;;;12.47;85.83
81812;BME280;71243;51.848;5.768;2023-08-31T05:04:27;100948.28;;;12.43;86.18
81812;BME280;71243;51.848;5.768;2023-08-31T05:06:52;100947.94;;;12.46;86.23
81812;BME280;71243;51.848;5.768;2023-08-31T05:09:17;100951.25;;;12.40;86.23
81812;BME280;71243;51.848;5.768;2023-08-31T05:11:42;100953.84;;;12.32;86.80
81812;BME280;71243;51.848;5.768;2023-08-31T05:14:08;100962.78;;;12.31;86.60
81812;BME280;71243;51.848;5.768;2023-08-31T05:16:33;100963.31;;;12.34;86.54
81812;BME280;71243;51.848;5.768;2023-08-31T05:18:58;100970.38;;;12.26;87.27
81812;BME280;71243;51.848;5.768;2023-08-31T05:21:23;100967.88;;;12.24;86.94
81812;BME280;71243;51.848;5.768;2023-08-31T05:23:48;100976.63;;;12.25;86.77
81812;BME280;71243;51.848;5.768;2023-08-31T05:26:14;100980.59;;;12.21;87.35
81812;BME280;71243;51.848;5.768;2023-08-31T05:28:39;100986.09;;;12.27;86.83
81812;BME280;71243;51.848;5.768;2023-08-31T05:31:04;100979.53;;;12.31;86.89
81812;BME280;71243;51.848;5.768;2023-08-31T05:33:29;100980.84;;;12.35;86.85
81812;BME280;71243;51.848;5.768;2023-08-31T05:35:55;100973.75;;;12.36;86.56
81812;BME280;71243;51.848;5.768;2023-08-31T05:38:20;100982.31;;;12.30;86.64
81812;BME280;71243;51.848;5.768;2023-08-31T05:40:45;100985.97;;;12.62;85.25
81812;BME280;71243;51.848;5.768;2023-08-31T05:43:11;100985.06;;;12.79;84.24
81812;BME280;71243;51.848;5.768;2023-08-31T05:45:36;100982.31;;;12.97;83.74
81812;BME280;71243;51.848;5.768;2023-08-31T05:48:02;100986.94;;;12.95;83.71
81812;BME280;71243;51.848;5.768;2023-08-31T05:50:27;100991.78;;;12.99;83.70
81812;BME280;71243;51.848;5.768;2023-08-31T05:52:53;101000.28;;;13.03;83.35
81812;BME280;71243;51.848;5.768;2023-08-31T05:55:18;101003.63;;;13.13;83.02
81812;BME280;71243;51.848;5.768;2023-08-31T05:57:44;101027.69;;;13.11;83.30
81812;BME280;71243;51.848;5.768;2023-08-31T06:00:09;101019.72;;;13.19;84.00
81812;BME280;71243;51.848;5.768;2023-08-31T06:02:34;101011.44;;;13.14;84.01
81812;BME280;71243;51.848;5.768;2023-08-31T06:05:00;101001.03;;;13.21;83.52
81812;BME280;71243;51.848;5.768;2023-08-31T06:07:25;101011.31;;;13.32;83.14
81812;BME280;71243;51.848;5.768;2023-08-31T06:09:50;101007.34;;;13.36;83.20
81812;BME280;71243;51.848;5.768;2023-08-31T06:12:15;101005.38;;;13.38;83.24
81812;BME280;71243;51.848;5.768;2023-08-31T06:14:41;101007.06;;;13.47;83.12
81812;BME280;71243;51.848;5.768;2023-08-31T06:17:06;101010.22;;;13.51;82.43
81812;BME280;71243;51.848;5.768;2023-08-31T06:19:31;101012.38;;;13.47;83.01
81812;BME280;71243;51.848;5.768;2023-08-31T06:21:56;101012.69;;;13.52;82.03
81812;BME280;71243;51.848;5.768;2023-08-31T06:24:22;101025.13;;;13.44;82.08
81812;BME280;71243;51.848;5.768;2023-08-31T06:26:47;101020.97;;;13.33;82.99
81812;BME280;71243;51.848;5.768;2023-08-31T06:29:12;101026.72;;;13.29;83.73
81812;BME280;71243;51.848;5.768;2023-08-31T06:31:37;101017.91;;;12.86;84.81
81812;BME280;71243;51.848;5.768;2023-08-31T06:34:03;101024.69;;;12.81;85.30
81812;BME280;71243;51.848;5.768;2023-08-31T06:36:28;101031.84;;;12.88;85.92
81812;BME280;71243;51.848;5.768;2023-08-31T06:38:53;101030.06;;;12.97;85.81
81812;BME280;71243;51.848;5.768;2023-08-31T06:41:18;101028.97;;;13.07;86.59
81812;BME280;71243;51.848;5.768;2023-08-31T06:43:43;101028.69;;;13.18;85.51
81812;BME280;71243;51.848;5.768;2023-08-31T06:46:09;101031.69;;;13.23;85.27
81812;BME280;71243;51.848;5.768;2023-08-31T06:48:34;101029.72;;;13.26;85.20
81812;BME280;71243;51.848;5.768;2023-08-31T06:50:59;101032.88;;;13.29;86.44
81812;BME280;71243;51.848;5.768;2023-08-31T06:53:24;101041.22;;;13.42;84.99
81812;BME280;71243;51.848;5.768;2023-08-31T06:55:50;101048.50;;;13.40;84.59
81812;BME280;71243;51.848;5.768;2023-08-31T06:58:15;101042.53;;;13.46;85.14
81812;BME280;71243;51.848;5.768;2023-08-31T07:00:40;101047.38;;;13.51;84.65
81812;BME280;71243;51.848;5.768;2023-08-31T07:03:05;101050.72;;;13.53;84.85
81812;BME280;71243;51.848;5.768;2023-08-31T07:05:33;101052.88;;;13.57;84.91
81812;BME280;71243;51.848;5.768;2023-08-31T07:07:58;101049.56;;;13.63;84.59
81812;BME280;71243;51.848;5.768;2023-08-31T07:10:23;101052.41;;;13.70;83.68
81812;BME280;71243;51.848;5.768;2023-08-31T07:12:49;101043.94;;;13.74;83.79
81812;BME280;71243;51.848;5.768;2023-08-31T07:15:14;101059.22;;;13.80;83.64
81812;BME280;71243;51.848;5.768;2023-08-31T07:17:39;101059.22;;;13.88;83.42
81812;BME280;71243;51.848;5.768;2023-08-31T07:20:05;101067.00;;;13.90;83.80
81812;BME280;71243;51.848;5.768;2023-08-31T07:22:31;101057.56;;;13.87;84.31
81812;BME280;71243;51.848;5.768;2023-08-31T07:24:57;101056.25;;;13.91;83.39
81812;BME280;71243;51.848;5.768;2023-08-31T07:27:22;101060.22;;;13.95;83.53
81812;BME280;71243;51.848;5.768;2023-08-31T07:29:48;101054.09;;;14.03;83.33
81812;BME280;71243;51.848;5.768;2023-08-31T07:32:13;101061.56;;;14.07;83.39
81812;BME280;71243;51.848;5.768;2023-08-31T07:34:38;101076.69;;;14.07;83.34
81812;BME280;71243;51.848;5.768;2023-08-31T07:37:03;101058.91;;;14.15;83.41
81812;BME280;71243;51.848;5.768;2023-08-31T07:39:28;101075.34;;;14.19;83.61
81812;BME280;71243;51.848;5.768;2023-08-31T07:41:54;101075.00;;;14.22;83.18
81812;BME280;71243;51.848;5.768;2023-08-31T07:44:19;101079.72;;;14.28;83.03
81812;BME280;71243;51.848;5.768;2023-08-31T07:46:44;101085.19;;;14.35;83.19
81812;BME280;71243;51.848;5.768;2023-08-31T07:49:09;101072.38;;;14.38;82.76
81812;BME280;71243;51.848;5.768;2023-08-31T07:51:35;101083.53;;;14.34;81.96
81812;BME280;71243;51.848;5.768;2023-08-31T07:54:00;101084.84;;;14.38;82.48
81812;BME280;71243;51.848;5.768;2023-08-31T07:56:25;101088.50;;;14.45;82.64
81812;BME280;71243;51.848;5.768;2023-08-31T07:58:50;101086.50;;;14.47;82.48
81812;BME280;71243;51.848;5.768;2023-08-31T08:01:16;101094.16;;;14.50;82.11
81812;BME280;71243;51.848;5.768;2023-08-31T08:03:41;101087.69;;;14.60;82.69
81812;BME280;71243;51.848;5.768;2023-08-31T08:06:06;101096.16;;;14.64;81.86
81812;BME280;71243;51.848;5.768;2023-08-31T08:08:31;101086.81;;;14.68;81.86
81812;BME280;71243;51.848;5.768;2023-08-31T08:10:56;101094.78;;;14.76;81.74
81812;BME280;71243;51.848;5.768;2023-08-31T08:13:22;101092.78;;;14.86;81.56
81812;BME280;71243;51.848;5.768;2023-08-31T08:15:47;101097.56;;;14.90;81.63
81812;BME280;71243;51.848;5.768;2023-08-31T08:18:12;101088.75;;;14.98;81.19
81812;BME280;71243;51.848;5.768;2023-08-31T08:20:38;101089.38;;;15.08;80.93
81812;BME280;71243;51.848;5.768;2023-08-31T08:23:04;101083.19;;;15.15;80.48
81812;BME280;71243;51.848;5.768;2023-08-31T08:25:29;101086.00;;;15.22;80.60
81812;BME280;71243;51.848;5.768;2023-08-31T08:27:55;101080.34;;;15.25;80.53
81812;BME280;71243;51.848;5.768;2023-08-31T08:30:20;101082.47;;;15.29;80.61
81812;BME280;71243;51.848;5.768;2023-08-31T08:32:45;101087.94;;;15.36;80.58
81812;BME280;71243;51.848;5.768;2023-08-31T08:35:11;101098.06;;;15.49;79.58
81812;BME280;71243;51.848;5.768;2023-08-31T08:37:36;101090.66;;;15.67;80.03
81812;BME280;71243;51.848;5.768;2023-08-31T08:40:02;101089.41;;;15.85;79.79
81812;BME280;71243;51.848;5.768;2023-08-31T08:42:29;101096.00;;;15.89;77.83
81812;BME280;71243;51.848;5.768;2023-08-31T08:44:56;101097.88;;;15.89;77.04
81812;BME280;71243;51.848;5.768;2023-08-31T08:47:22;101099.44;;;15.98;78.47
81812;BME280;71243;51.848;5.768;2023-08-31T08:49:47;101099.69;;;16.11;78.07
81812;BME280;71243;51.848;5.768;2023-08-31T08:52:14;101098.56;;;16.28;78.04
81812;BME280;71243;51.848;5.768;2023-08-31T08:54:40;101104.25;;;16.48;76.55
81812;BME280;71243;51.848;5.768;2023-08-31T08:57:05;101104.41;;;16.69;74.75
81812;BME280;71243;51.848;5.768;2023-08-31T08:59:31;101103.34;;;16.92;73.06
81812;BME280;71243;51.848;5.768;2023-08-31T09:01:57;101110.69;;;17.19;69.60
81812;BME280;71243;51.848;5.768;2023-08-31T09:04:22;101099.63;;;17.37;68.11
81812;BME280;71243;51.848;5.768;2023-08-31T09:06:47;101106.84;;;17.51;67.94
81812;BME280;71243;51.848;5.768;2023-08-31T09:09:13;101108.38;;;17.60;67.59
81812;BME280;71243;51.848;5.768;2023-08-31T09:11:38;101099.44;;;17.68;67.20
81812;BME280;71243;51.848;5.768;2023-08-31T09:14:14;101096.41;;;17.92;65.94
81812;BME280;71243;51.848;5.768;2023-08-31T09:16:44;101094.19;;;17.95;66.15
81812;BME280;71243;51.848;5.768;2023-08-31T09:19:25;101085.72;;;18.13;66.66
81812;BME280;71243;51.848;5.768;2023-08-31T09:21:51;101090.38;;;18.25;66.59
81812;BME280;71243;51.848;5.768;2023-08-31T09:24:17;101097.75;;;18.23;64.68
81812;BME280;71243;51.848;5.768;2023-08-31T09:26:48;101093.84;;;18.19;63.95
81812;BME280;71243;51.848;5.768;2023-08-31T09:29:13;101103.94;;;18.24;63.70
81812;BME280;71243;51.848;5.768;2023-08-31T09:31:42;101101.97;;;18.32;63.65
81812;BME280;71243;51.848;5.768;2023-08-31T09:34:07;101097.84;;;18.51;64.17
81812;BME280;71243;51.848;5.768;2023-08-31T09:36:32;101103.06;;;18.59;64.15
81812;BME280;71243;51.848;5.768;2023-08-31T09:38:58;101089.69;;;18.59;62.06
81812;BME280;71243;51.848;5.768;2023-08-31T09:41:24;101103.06;;;18.59;61.52
81812;BME280;71243;51.848;5.768;2023-08-31T09:43:49;101103.78;;;18.46;60.76
81812;BME280;71243;51.848;5.768;2023-08-31T09:46:14;101099.09;;;18.55;60.91
81812;BME280;71243;51.848;5.768;2023-08-31T09:48:42;101093.22;;;18.66;62.03
81812;BME280;71243;51.848;5.768;2023-08-31T09:51:09;101098.25;;;18.76;59.40
81812;BME280;71243;51.848;5.768;2023-08-31T09:53:36;101090.72;;;18.92;60.46
81812;BME280;71243;51.848;5.768;2023-08-31T09:56:06;101090.16;;;18.97;60.05
81812;BME280;71243;51.848;5.768;2023-08-31T09:58:32;101088.44;;;18.89;59.02
81812;BME280;71243;51.848;5.768;2023-08-31T10:00:58;101090.94;;;18.91;58.04
81812;BME280;71243;51.848;5.768;2023-08-31T10:03:25;101091.47;;;19.14;58.84
81812;BME280;71243;51.848;5.768;2023-08-31T10:05:51;101099.19;;;19.30;57.45
81812;BME280;71243;51.848;5.768;2023-08-31T10:08:17;101089.19;;;19.45;56.84
81812;BME280;71243;51.848;5.768;2023-08-31T10:10:42;101091.09;;;19.57;56.25
81812;BME280;71243;51.848;5.768;2023-08-31T10:13:08;101083.34;;;19.76;56.74
81812;BME280;71243;51.848;5.768;2023-08-31T10:15:36;101086.47;;;19.92;57.31
81812;BME280;71243;51.848;5.768;2023-08-31T10:18:05;101092.28;;;20.02;55.55
81812;BME280;71243;51.848;5.768;2023-08-31T10:20:31;101091.66;;;20.00;55.19
81812;BME280;71243;51.848;5.768;2023-08-31T10:23:04;101094.09;;;19.89;56.11
81812;BME280;71243;51.848;5.768;2023-08-31T10:25:59;101087.47;;;19.78;54.02
81812;BME280;71243;51.848;5.768;2023-08-31T10:28:27;101095.25;;;19.66;54.23
81812;BME280;71243;51.848;5.768;2023-08-31T10:31:17;101091.56;;;19.67;54.77
81812;BME280;71243;51.848;5.768;2023-08-31T10:33:44;101081.44;;;19.63;54.83
81812;BME280;71243;51.848;5.768;2023-08-31T10:36:18;101092.34;;;19.61;55.52
81812;BME280;71243;51.848;5.768;2023-08-31T10:41:22;101089.16;;;19.32;52.42
81812;BME280;71243;51.848;5.768;2023-08-31T10:43:55;101085.94;;;19.22;53.13
81812;BME280;71243;51.848;5.768;2023-08-31T10:46:29;101081.66;;;19.27;52.25
81812;BME280;71243;51.848;5.768;2023-08-31T10:51:31;101099.94;;;19.11;55.33
81812;BME280;71243;51.848;5.768;2023-08-31T10:56:31;101115.03;;;18.91;62.79
81812;BME280;71243;51.848;5.768;2023-08-31T10:58:58;101123.34;;;18.75;64.46
81812;BME280;71243;51.848;5.768;2023-08-31T11:01:57;101121.28;;;18.70;65.28
81812;BME280;71243;51.848;5.768;2023-08-31T11:04:27;101109.09;;;18.68;66.41
81812;BME280;71243;51.848;5.768;2023-08-31T11:07:17;101112.13;;;18.58;66.25
81812;BME280;71243;51.848;5.768;2023-08-31T11:09:46;101117.53;;;18.43;66.08
81812;BME280;71243;51.848;5.768;2023-08-31T11:12:12;101120.22;;;18.43;66.94
81812;BME280;71243;51.848;5.768;2023-08-31T11:14:37;101119.75;;;18.40;66.76
81812;BME280;71243;51.848;5.768;2023-08-31T11:17:04;101121.13;;;18.36;66.67
81812;BME280;71243;51.848;5.768;2023-08-31T11:19:29;101123.75;;;18.29;67.51
81812;BME280;71243;51.848;5.768;2023-08-31T11:21:54;101138.22;;;18.35;67.70
81812;BME280;71243;51.848;5.768;2023-08-31T11:24:20;101139.31;;;18.19;66.28
81812;BME280;71243;51.848;5.768;2023-08-31T11:26:48;101133.06;;;18.12;63.55
81812;BME280;71243;51.848;5.768;2023-08-31T11:29:13;101130.50;;;18.04;63.38
81812;BME280;71243;51.848;5.768;2023-08-31T11:31:38;101146.13;;;17.86;63.06
81812;BME280;71243;51.848;5.768;2023-08-31T11:34:04;101134.25;;;17.74;63.47
81812;BME280;71243;51.848;5.768;2023-08-31T11:36:31;101139.34;;;17.40;64.63
81812;BME280;71243;51.848;5.768;2023-08-31T11:38:56;101138.59;;;17.46;63.76
81812;BME280;71243;51.848;5.768;2023-08-31T11:41:21;101136.03;;;17.23;66.93
81812;BME280;71243;51.848;5.768;2023-08-31T11:43:48;101126.19;;;17.24;66.78
81812;BME280;71243;51.848;5.768;2023-08-31T11:46:13;101128.75;;;17.32;64.35
81812;BME280;71243;51.848;5.768;2023-08-31T11:48:39;101130.41;;;17.62;65.41
81812;BME280;71243;51.848;5.768;2023-08-31T11:51:04;101132.47;;;17.96;64.80
81812;BME280;71243;51.848;5.768;2023-08-31T11:53:29;101132.88;;;18.14;62.93
81812;BME280;71243;51.848;5.768;2023-08-31T11:55:55;101134.59;;;18.21;61.65
81812;BME280;71243;51.848;5.768;2023-08-31T11:58:20;101129.41;;;18.20;60.75
81812;BME280;71243;51.848;5.768;2023-08-31T12:00:54;101125.25;;;18.32;61.02
81812;BME280;71243;51.848;5.768;2023-08-31T12:03:19;101115.94;;;18.49;61.37
81812;BME280;71243;51.848;5.768;2023-08-31T12:05:45;101119.38;;;18.43;60.76
81812;BME280;71243;51.848;5.768;2023-08-31T12:08:11;101118.34;;;18.65;62.04
81812;BME280;71243;51.848;5.768;2023-08-31T12:10:40;101104.53;;;18.89;61.56
81812;BME280;71243;51.848;5.768;2023-08-31T12:13:09;101112.28;;;19.12;61.37
81812;BME280;71243;51.848;5.768;2023-08-31T12:15:34;101108.91;;;19.31;58.50
81812;BME280;71243;51.848;5.768;2023-08-31T12:18:07;101112.53;;;19.51;59.58
81812;BME280;71243;51.848;5.768;2023-08-31T12:20:32;101115.28;;;19.64;58.72
81812;BME280;71243;51.848;5.768;2023-08-31T12:22:57;101120.84;;;19.69;58.19
81812;BME280;71243;51.848;5.768;2023-08-31T12:25:22;101114.22;;;19.65;59.44
81812;BME280;71243;51.848;5.768;2023-08-31T12:27:48;101110.16;;;19.82;58.66
81812;BME280;71243;51.848;5.768;2023-08-31T12:30:13;101109.38;;;19.95;57.07
81812;BME280;71243;51.848;5.768;2023-08-31T12:32:38;101109.22;;;20.09;57.78
81812;BME280;71243;51.848;5.768;2023-08-31T12:35:04;101108.22;;;20.23;57.75
81812;BME280;71243;51.848;5.768;2023-08-31T12:37:29;101107.19;;;20.18;57.65
81812;BME280;71243;51.848;5.768;2023-08-31T12:39:54;101108.84;;;20.25;57.68
81812;BME280;71243;51.848;5.768;2023-08-31T12:42:20;101108.03;;;20.44;57.83
81812;BME280;71243;51.848;5.768;2023-08-31T12:44:45;101108.03;;;20.51;58.25
81812;BME280;71243;51.848;5.768;2023-08-31T12:47:10;101104.75;;;20.55;56.55
81812;BME280;71243;51.848;5.768;2023-08-31T12:49:35;101113.59;;;20.56;57.48
81812;BME280;71243;51.848;5.768;2023-08-31T12:52:00;101105.16;;;20.46;58.09
81812;BME280;71243;51.848;5.768;2023-08-31T12:54:26;101107.81;;;20.33;56.75
81812;BME280;71243;51.848;5.768;2023-08-31T12:56:52;101106.38;;;20.56;56.56
81812;BME280;71243;51.848;5.768;2023-08-31T12:59:17;101116.72;;;20.86;56.09
81812;BME280;71243;51.848;5.768;2023-08-31T13:01:43;101104.31;;;20.78;55.45